createdAt,value
2018-07-07T00:04:50.878Z,22.3
2018-07-07T00:09:48.957Z,22.3
2018-07-07T00:14:46.725Z,22.3
2018-07-07T00:19:45.081Z,22.2
2018-07-07T00:24:43.164Z,22.2
2018-07-07T00:29:41.323Z,22.2
2018-07-07T00:34:39.401Z,22.2
2018-07-07T00:39:37.361Z,22.1
2018-07-07T00:44:35.536Z,22.1
2018-07-07T00:49:33.416Z,22.1
2018-07-07T00:54:31.718Z,22
2018-07-07T00:59:29.702Z,22
2018-07-07T01:04:27.959Z,21.9
2018-07-07T01:09:26.103Z,21.9
2018-07-07T01:14:24.048Z,21.8
2018-07-07T01:19:22.178Z,21.8
2018-07-07T01:24:20.157Z,21.7
2018-07-07T01:29:18.145Z,20.1
2018-07-07T01:34:16.030Z,21.7
2018-07-07T01:39:14.191Z,21.7
2018-07-07T01:44:12.469Z,21.7
2018-07-07T01:49:10.358Z,21.6
2018-07-07T01:54:08.274Z,21.6
2018-07-07T01:59:06.163Z,21.6
2018-07-07T02:04:04.101Z,20.8
2018-07-07T02:09:02.059Z,21.5
2018-07-07T02:14:00.481Z,21
2018-07-07T02:18:58.003Z,21.5
2018-07-07T02:23:55.976Z,21.5
2018-07-07T02:28:53.931Z,21.5
2018-07-07T02:33:51.878Z,21.5
2018-07-07T02:38:49.807Z,21.5
2018-07-07T02:43:47.837Z,21.4
2018-07-07T02:48:45.368Z,21.4
2018-07-07T02:53:43.269Z,21.3
2018-07-07T02:58:41.291Z,21.3
2018-07-07T03:03:38.970Z,21.3
2018-07-07T03:08:36.803Z,21.3
2018-07-07T03:13:34.574Z,21.2
2018-07-07T03:18:32.604Z,21.2
2018-07-07T03:23:30.996Z,21.2
2018-07-07T03:28:28.972Z,21.1
2018-07-07T03:33:27.183Z,21.1
2018-07-07T03:38:25.553Z,21.1
2018-07-07T03:43:23.616Z,21.1
2018-07-07T03:48:21.650Z,21.1
2018-07-07T03:53:19.590Z,21.1
2018-07-07T03:58:17.837Z,21.1
2018-07-07T04:03:16.146Z,21
2018-07-07T04:08:14.326Z,21
2018-07-07T04:13:12.525Z,21
2018-07-07T04:18:10.384Z,21.1
2018-07-07T04:23:08.504Z,21.1
2018-07-07T04:28:06.309Z,21.1
2018-07-07T04:33:04.312Z,21.1
2018-07-07T04:38:02.213Z,21.1
2018-07-07T04:42:59.493Z,20.6
2018-07-07T04:47:57.524Z,21.1
2018-07-07T04:52:55.368Z,21.1
2018-07-07T04:57:53.630Z,21.1
2018-07-07T05:02:51.722Z,21.2
2018-07-07T05:07:49.434Z,21.2
2018-07-07T05:12:47.629Z,21.2
2018-07-07T05:17:45.635Z,21.3
2018-07-07T05:22:43.535Z,21.3
2018-07-07T05:27:41.589Z,21.1
2018-07-07T05:32:39.678Z,21.3
2018-07-07T05:37:37.837Z,21.3
2018-07-07T05:42:35.677Z,21.3
2018-07-07T05:47:33.499Z,21.3
2018-07-07T05:52:31.475Z,21.4
2018-07-07T05:57:29.608Z,21.5
2018-07-07T06:02:27.483Z,21.5
2018-07-07T06:07:25.354Z,21.5
2018-07-07T06:12:23.172Z,21.6
2018-07-07T06:17:21.364Z,21.6
2018-07-07T06:22:19.362Z,21.7
2018-07-07T06:27:17.349Z,21.7
2018-07-07T06:32:15.454Z,21.5
2018-07-07T06:37:13.140Z,21.8
2018-07-07T06:42:10.993Z,21.9
2018-07-07T06:47:08.953Z,21.9
2018-07-07T06:52:06.938Z,21.9
2018-07-07T06:57:04.902Z,22
2018-07-07T07:02:02.813Z,22.1
2018-07-07T07:07:00.833Z,22.1
2018-07-07T07:11:59.447Z,22.2
2018-07-07T07:16:57.144Z,22.2
2018-07-07T07:21:55.136Z,22.3
2018-07-07T07:26:53.328Z,22.3
2018-07-07T07:31:51.424Z,22.4
2018-07-07T07:36:49.523Z,22.5
2018-07-07T07:41:47.694Z,22
2018-07-07T07:46:45.882Z,22.6
2018-07-07T07:51:43.679Z,22.6
2018-07-07T07:56:41.819Z,21.6
2018-07-07T08:01:39.708Z,22.8
2018-07-07T08:06:37.652Z,22.3
2018-07-07T08:11:35.333Z,22.9
2018-07-07T08:16:33.353Z,23
2018-07-07T08:21:31.486Z,23
2018-07-07T08:26:29.612Z,23.1
2018-07-07T08:31:27.562Z,22.7
2018-07-07T08:36:25.500Z,23.3
2018-07-07T08:41:23.581Z,23.4
2018-07-07T08:46:21.944Z,23
2018-07-07T08:51:20.239Z,23.1
2018-07-07T08:56:18.462Z,23.3
2018-07-07T09:01:16.537Z,23.9
2018-07-07T09:06:14.640Z,23.4
2018-07-07T09:11:12.469Z,23.8
2018-07-07T09:16:10.616Z,23.7
2018-07-07T09:21:08.660Z,23.7
2018-07-07T09:26:06.701Z,23.6
2018-07-07T09:31:04.428Z,23.2
2018-07-07T09:36:02.539Z,23.5
2018-07-07T09:41:00.569Z,23
2018-07-07T09:45:58.371Z,23.3
2018-07-07T09:50:56.076Z,23.3
2018-07-07T09:55:54.314Z,23.2
2018-07-07T10:00:52.249Z,23.2
2018-07-07T10:05:50.345Z,23.1
2018-07-07T10:10:48.374Z,23.1
2018-07-07T10:15:46.314Z,23
2018-07-07T10:20:44.453Z,23
2018-07-07T10:25:42.447Z,22.9
2018-07-07T10:30:40.427Z,22.3
2018-07-07T10:35:38.253Z,22.7
2018-07-07T10:40:36.107Z,22.6
2018-07-07T10:45:34.246Z,22.5
2018-07-07T10:50:31.971Z,22.5
2018-07-07T10:55:30.063Z,22.4
2018-07-07T11:00:28.121Z,22.4
2018-07-07T11:05:25.949Z,22.4
2018-07-07T11:10:23.809Z,22.4
2018-07-07T11:15:21.914Z,22.5
2018-07-07T11:20:19.959Z,22.1
2018-07-07T11:25:17.567Z,22.6
2018-07-07T11:30:15.305Z,22.7
2018-07-07T11:35:13.275Z,22.7
2018-07-07T11:40:11.085Z,22.8
2018-07-07T11:45:08.854Z,22.8
2018-07-07T11:50:06.804Z,22.8
2018-07-07T11:55:04.998Z,22.7
2018-07-07T12:00:02.988Z,22.7
2018-07-07T12:05:00.676Z,22.7
2018-07-07T12:09:58.825Z,22.7
2018-07-07T12:14:56.080Z,22.6
2018-07-07T12:19:53.904Z,22.6
2018-07-07T12:24:51.269Z,22.6
2018-07-07T12:29:48.581Z,22.5
2018-07-07T12:34:46.284Z,22.5
2018-07-07T12:39:44.088Z,22.5
2018-07-07T12:44:42.098Z,22.5
2018-07-07T12:49:40.007Z,22.6
2018-07-07T12:54:37.858Z,22.5
2018-07-07T12:59:35.731Z,22.7
2018-07-07T13:04:33.535Z,22.3
2018-07-07T13:09:31.137Z,22.8
2018-07-07T13:14:29.078Z,22.7
2018-07-07T13:19:26.878Z,22.7
2018-07-07T13:24:24.766Z,22.7
2018-07-07T13:29:22.587Z,22.7
2018-07-07T13:34:20.532Z,22.7
2018-07-07T13:39:18.358Z,22.7
2018-07-07T13:44:16.180Z,22.7
2018-07-07T13:49:13.960Z,22.7
2018-07-07T13:54:11.674Z,22.8
2018-07-07T13:59:09.492Z,22.9
2018-07-07T14:04:07.176Z,23
2018-07-07T14:09:05.167Z,23.1
2018-07-07T14:14:05.098Z,23.4
2018-07-07T14:19:02.478Z,23.8
2018-07-07T14:24:01.032Z,24
2018-07-07T14:28:59.116Z,24.1
2018-07-07T14:33:56.608Z,24.3
2018-07-07T14:38:54.485Z,24.3
2018-07-07T14:43:52.548Z,24.4
2018-07-07T14:48:51.002Z,24.6
2018-07-07T14:53:49.364Z,24.7
2018-07-07T14:58:47.647Z,24.4
2018-07-07T15:03:45.624Z,24.5
2018-07-07T15:08:43.556Z,24.4
2018-07-07T15:13:41.609Z,24.2
2018-07-07T15:18:39.980Z,24.1
2018-07-07T15:23:38.021Z,24
2018-07-07T15:28:35.395Z,24
2018-07-07T15:33:33.144Z,24
2018-07-07T15:38:31.218Z,24
2018-07-07T15:43:29.107Z,24.2
2018-07-07T15:48:27.155Z,24.4
2018-07-07T15:53:24.750Z,24.4
2018-07-07T15:58:22.559Z,23.7
2018-07-07T16:03:20.233Z,24
2018-07-07T16:08:18.135Z,23.5
2018-07-07T16:13:15.921Z,23.9
2018-07-07T16:18:13.564Z,23.8
2018-07-07T16:23:11.087Z,23.7
2018-07-07T16:28:08.925Z,23.6
2018-07-07T16:33:07.092Z,23.5
2018-07-07T16:38:04.956Z,23.4
2018-07-07T16:43:02.804Z,23.3
2018-07-07T16:48:00.452Z,22.7
2018-07-07T16:52:58.090Z,23.2
2018-07-07T16:57:55.855Z,22.6
2018-07-07T17:02:53.589Z,23
2018-07-07T17:07:51.539Z,22.5
2018-07-07T17:12:49.347Z,22.9
2018-07-07T17:17:47.159Z,22.4
2018-07-07T17:22:44.940Z,22.8
2018-07-07T17:27:42.804Z,22.3
2018-07-07T17:32:40.498Z,22.7
2018-07-07T17:37:38.437Z,17.7
2018-07-07T17:42:36.386Z,22.6
2018-07-07T17:47:34.333Z,22.5
2018-07-07T17:52:32.096Z,22.5
2018-07-07T17:57:29.967Z,22.4
2018-07-07T18:02:27.653Z,22.3
2018-07-07T18:07:25.386Z,21.8
2018-07-07T18:12:23.007Z,22.2
2018-07-07T18:17:20.711Z,22.2
2018-07-07T18:22:18.682Z,22.1
2018-07-07T18:27:16.270Z,21.6
2018-07-07T18:32:13.845Z,22.1
2018-07-07T18:37:11.695Z,22
2018-07-07T18:42:09.480Z,22
2018-07-07T18:47:07.705Z,22
2018-07-07T18:52:05.461Z,21.9
2018-07-07T18:57:03.418Z,21.9
2018-07-07T19:02:01.153Z,21.8
2018-07-07T19:06:59.002Z,21.8
2018-07-07T19:11:56.884Z,21.8
2018-07-07T19:16:54.629Z,21.7
2018-07-07T19:21:52.601Z,21.7
2018-07-07T19:26:50.630Z,21.6
2018-07-07T19:31:48.519Z,21.6
2018-07-07T19:36:46.267Z,21.6
2018-07-07T19:41:43.875Z,21.6
2018-07-07T19:46:41.636Z,21.5
2018-07-07T19:51:39.452Z,21.5
2018-07-07T19:56:37.507Z,21.5
2018-07-07T20:01:35.281Z,21.5
2018-07-07T20:06:32.924Z,21.5
2018-07-07T20:11:30.813Z,21.3
2018-07-07T20:16:28.721Z,21.4
2018-07-07T20:21:26.672Z,21.2
2018-07-07T20:26:24.621Z,21.4
2018-07-07T20:31:22.543Z,21.3
2018-07-07T20:36:20.382Z,21.3
2018-07-07T20:41:18.228Z,21.3
2018-07-07T20:46:15.682Z,21.3
2018-07-07T20:51:13.582Z,21.1
2018-07-07T20:56:11.312Z,21.3
2018-07-07T21:01:08.879Z,21.2
2018-07-07T21:06:06.706Z,21.2
2018-07-07T21:11:04.130Z,21.1
2018-07-07T21:16:01.735Z,21.1
2018-07-07T21:20:59.634Z,21.1
2018-07-07T21:25:57.466Z,21
2018-07-07T21:30:55.193Z,21
2018-07-07T21:35:53.121Z,21
2018-07-07T21:40:50.785Z,20.9
2018-07-07T21:45:48.478Z,20.9
2018-07-07T21:50:46.243Z,20.9
2018-07-07T21:55:44.204Z,20.8
2018-07-07T22:00:42.064Z,20.8
2018-07-07T22:05:39.975Z,20.8
2018-07-07T22:10:37.888Z,20.8
2018-07-07T22:15:35.701Z,20.8
2018-07-07T22:20:33.611Z,20.7
2018-07-07T22:25:30.928Z,20.8
2018-07-07T22:30:28.722Z,20.8
2018-07-07T22:35:26.643Z,20.8
2018-07-07T22:40:24.627Z,20.8
2018-07-07T22:45:22.224Z,20.8
2018-07-07T22:50:20.123Z,20.7
2018-07-07T22:55:17.925Z,20.7
2018-07-07T23:00:15.911Z,20.7
2018-07-07T23:05:13.722Z,20.6
2018-07-07T23:10:11.701Z,20.6
2018-07-07T23:15:09.217Z,20.6
2018-07-07T23:20:06.849Z,20.6
2018-07-07T23:25:04.567Z,20.6
2018-07-07T23:30:02.599Z,20.5
2018-07-07T23:35:00.354Z,20.5
2018-07-07T23:39:58.023Z,20.5
2018-07-07T23:44:55.784Z,20.5
2018-07-07T23:49:53.804Z,20.5
2018-07-07T23:54:51.700Z,20.5
2018-07-07T23:59:49.634Z,19.5
